ěÝzenÝ letovÚho provozu ╚eskÚ republiky
Letiste: LKMT Aktualizace: 10.08.2020 06:00:26  UTC
 METAR LKMT 10.08. 06:00 ...
METAR LKMT 100600Z 05003KT 9000 NSC 20/18 Q1018 NOSIG RMK REG QNH 1015=
 TAF LKMT 10.08. 05:00 ...
TAF LKMT 100500Z 1006/1112 VRB02KT CAVOK      BECMG 1006/1008 03009KT      TEMPO 1012/1019 04014G24KT 8000 SHRA SCT040CB=